East Rutherford, NJ

6:15 PM EST on February 07, 2016 (GMT -0500)
East Rutherford Fire | | Change Station
CLOSE
Current Station
Personal Weather Station
Location: East Rutherford, NJ
Elevation: 79 ft
Nearby Weather Stations

Elev 79 ft 40.84 °N, 74.10 °W | Updated 34 seconds ago

Clear
Clear
43.0 °F
Feels Like 43 °F
N
2.0
Wind Variable Wind from NE
Gusts 4.9 mph

Today
High -- | Low -- °F
--% Chance of Precip.
Yesterday
High -- | Low -- °F
Precip. -- in
Pressure 30.01 in
Visibility 10.0 miles
Clouds Clear
Windchill 43 °F
Dew Point 21 °F
Humidity 41%
Rainfall 0.00 in
Snow Depth Not available.
7:00 AM 5:20 PM
Waning Crescent, 1% visible
METAR KTEB 072251Z 07006KT 10SM CLR 06/M06 A3001 RMK AO2 SLP162 T00611061
Pressure 30.01 in
Visibility 10.0 miles
Clouds Clear
Windchill 43 °F
Dew Point 21 °F
Humidity 41%
Rainfall 0.00 in
Snow Depth Not available.
7:00 AM 5:20 PM
Waning Crescent, 1% visible
METAR KTEB 072251Z 07006KT 10SM CLR 06/M06 A3001 RMK AO2 SLP162 T00611061

10-Day Weather Forecast

Almanac

Astronomy

Feb. 07, 2016 Rise Set
Actual Time
Civil Twilight
Nautical Twilight
Astronomical Twilight
Moon
Length of Visible Light
Length of Day
Tomorrow will be .
, % of the Moon is Illuminated

Today's Extremes

State Highs State Lows

Community

WunderPhotos

Upload Photos

1,891,325 photos uploaded!

WunderBlog® & News

Nearby

Air Quality

  Air Quality AQ Index Pollutant
Not available.

Snow Depth

Station Depth Elevation

Earthquake Activity

City Distance Mag. Time & Date
Minimum magnitude displayed is 2.5.

Coastal Water Temperatures

Place Temperature

Stations

Nearby Weather Stations

Station Location Temp. Windchill Dew Point Humidity Wind Precip. Elev Updated Type
                   

Watches & Warnings

There are currently no watches in effect.